Time,TemperatureF,DewpointF,PressureIn,WindDirection,WindDirectionDegrees,WindSpeedMPH,WindSpeedGustMPH,Humidity,HourlyPrecipIn,Conditions,Clouds,dailyrainin,SolarRadiationWatts/m^2,SoftwareType,DateUTC
2013-06-10 00:05:00,62.7,58.1,29.70,NNW,341,0.0,9.0,85,0.00,,,0.00,0,Wunderground v.1.15,2013-06-10 05:05:00,
2013-06-10 00:15:00,62.4,57.8,29.70,North,350,0.0,9.0,85,0.00,,,0.00,0,Wunderground v.1.15,2013-06-10 05:15:00,
2013-06-10 00:20:00,62.3,57.7,29.70,North,355,0.0,9.0,85,0.00,,,0.00,0,Wunderground v.1.15,2013-06-10 05:20:00,
2013-06-10 00:30:00,62.0,57.8,29.70,North,351,1.0,1.0,86,0.00,,,0.00,0,Wunderground v.1.15,2013-06-10 05:30:00,
2013-06-10 00:40:00,61.8,57.6,29.70,North,350,0.0,9.0,86,0.00,,,0.00,0,Wunderground v.1.15,2013-06-10 05:40:00,
2013-06-10 00:45:00,61.6,57.4,29.70,NW,305,0.0,9.0,86,0.00,,,0.00,0,Wunderground v.1.15,2013-06-10 05:45:00,
2013-06-10 00:55:00,61.4,57.5,29.70,NNW,327,0.0,9.0,87,0.00,,,0.00,0,Wunderground v.1.15,2013-06-10 05:55:00,
2013-06-10 01:05:00,61.1,57.2,29.70,NW,324,0.0,9.0,87,0.00,,,0.00,0,Wunderground v.1.15,2013-06-10 06:05:00,
2013-06-10 01:10:00,60.9,57.0,29.70,NW,324,0.0,9.0,87,0.00,,,0.00,0,Wunderground v.1.15,2013-06-10 06:10:00,
2013-06-10 01:20:00,60.8,56.9,29.70,NW,325,0.0,9.0,87,0.00,,,0.00,0,Wunderground v.1.15,2013-06-10 06:20:00,
2013-06-10 01:25:00,60.7,56.8,29.70,NW,325,0.0,9.0,87,0.00,,,0.00,0,Wunderground v.1.15,2013-06-10 06:25:00,
2013-06-10 01:35:00,60.4,56.5,29.70,NW,325,0.0,9.0,87,0.00,,,0.00,0,Wunderground v.1.15,2013-06-10 06:35:00,
2013-06-10 01:45:00,60.2,56.6,29.70,NW,325,0.0,9.0,88,0.00,,,0.00,0,Wunderground v.1.15,2013-06-10 06:45:00,
2013-06-10 01:50:00,60.1,56.5,29.70,NW,325,0.0,9.0,88,0.00,,,0.00,0,Wunderground v.1.15,2013-06-10 06:50:00,
2013-06-10 02:00:00,60.0,56.4,29.70,NNW,344,0.0,9.0,88,0.00,,,0.00,0,Wunderground v.1.15,2013-06-10 07:00:00,
2013-06-10 02:10:00,60.0,56.4,29.70,NNW,343,0.0,9.0,88,0.00,,,0.00,0,Wunderground v.1.15,2013-06-10 07:10:00,
2013-06-10 02:15:00,59.9,56.3,29.70,NNW,345,0.0,9.0,88,0.00,,,0.00,0,Wunderground v.1.15,2013-06-10 07:15:00,
2013-06-10 02:25:00,60.0,56.7,29.70,NNW,340,1.0,9.0,89,0.00,,,0.00,0,Wunderground v.1.15,2013-06-10 07:25:00,
2013-06-10 02:30:00,59.9,56.6,29.70,North,355,1.0,9.0,89,0.00,,,0.00,0,Wunderground v.1.15,2013-06-10 07:30:00,
2013-06-10 02:40:00,59.8,56.6,29.70,North,355,0.0,9.0,89,0.00,,,0.00,0,Wunderground v.1.15,2013-06-10 07:40:00,
2013-06-10 02:50:00,59.6,56.4,29.70,North,355,0.0,9.0,89,0.00,,,0.00,0,Wunderground v.1.15,2013-06-10 07:50:00,
2013-06-10 03:00:00,59.4,56.2,29.71,North,355,0.0,9.0,89,0.00,,,0.00,0,Wunderground v.1.15,2013-06-10 08:00:00,
2013-06-10 03:10:00,59.1,55.9,29.71,North,355,0.0,9.0,89,0.00,,,0.00,0,Wunderground v.1.15,2013-06-10 08:10:00,
2013-06-10 03:20:00,58.8,55.6,29.70,North,355,0.0,9.0,89,0.00,,,0.00,0,Wunderground v.1.15,2013-06-10 08:20:00,
2013-06-10 03:30:00,58.7,55.8,29.71,North,355,0.0,9.0,90,0.00,,,0.00,0,Wunderground v.1.15,2013-06-10 08:30:00,
2013-06-10 03:40:00,58.5,55.6,29.71,North,355,0.0,9.0,90,0.00,,,0.00,0,Wunderground v.1.15,2013-06-10 08:40:00,
2013-06-10 03:50:00,58.4,55.5,29.71,North,355,0.0,9.0,90,0.00,,,0.00,0,Wunderground v.1.15,2013-06-10 08:50:00,
2013-06-10 04:00:00,58.4,55.5,29.71,North,355,0.0,9.0,90,0.00,,,0.00,0,Wunderground v.1.15,2013-06-10 09:00:00,
2013-06-10 04:10:00,58.4,55.8,29.71,North,355,0.0,9.0,91,0.00,,,0.00,0,Wunderground v.1.15,2013-06-10 09:10:00,
2013-06-10 04:15:00,58.4,55.8,29.71,North,355,0.0,9.0,91,0.00,,,0.00,0,Wunderground v.1.15,2013-06-10 09:15:00,
2013-06-10 04:25:00,58.6,56.0,29.71,North,355,0.0,9.0,91,0.00,,,0.00,0,Wunderground v.1.15,2013-06-10 09:25:00,
2013-06-10 04:35:00,58.7,56.1,29.71,North,355,0.0,9.0,91,0.00,,,0.00,0,Wunderground v.1.15,2013-06-10 09:35:00,
2013-06-10 04:45:00,58.7,56.1,29.71,North,355,0.0,9.0,91,0.00,,,0.00,0,Wunderground v.1.15,2013-06-10 09:45:00,
2013-06-10 04:55:00,58.9,56.6,29.71,North,355,0.0,9.0,92,0.00,,,0.00,0,Wunderground v.1.15,2013-06-10 09:55:00,
2013-06-10 05:05:00,58.9,56.6,29.72,North,355,0.0,0.0,92,0.00,,,0.00,0,Wunderground v.1.15,2013-06-10 10:05:00,
2013-06-10 05:15:00,58.8,56.5,29.72,North,355,0.0,0.0,92,0.00,,,0.00,0,Wunderground v.1.15,2013-06-10 10:15:00,
2013-06-10 05:25:00,58.8,56.5,29.72,North,355,0.0,0.0,92,0.00,,,0.00,0,Wunderground v.1.15,2013-06-10 10:25:00,
2013-06-10 05:30:00,58.8,56.5,29.72,North,355,0.0,0.0,92,0.00,,,0.00,0,Wunderground v.1.15,2013-06-10 10:30:00,
2013-06-10 05:40:00,58.9,56.6,29.72,North,355,0.0,0.0,92,0.00,,,0.00,0,Wunderground v.1.15,2013-06-10 10:40:00,
2013-06-10 05:50:00,58.9,56.6,29.72,North,355,0.0,0.0,92,0.00,,,0.00,0,Wunderground v.1.15,2013-06-10 10:50:00,
2013-06-10 05:55:00,58.9,56.6,29.72,North,355,0.0,0.0,92,0.00,,,0.00,0,Wunderground v.1.15,2013-06-10 10:55:00,
2013-06-10 06:00:00,58.9,56.6,29.73,North,355,0.0,0.0,92,0.00,,,0.00,0,Wunderground v.1.15,2013-06-10 11:00:00,
2013-06-10 06:10:00,58.8,56.5,29.73,North,355,0.0,0.0,92,0.00,,,0.00,7,Wunderground v.1.15,2013-06-10 11:10:00,
2013-06-10 06:20:00,58.7,56.4,29.73,North,355,0.0,0.0,92,0.00,,,0.00,9,Wunderground v.1.15,2013-06-10 11:20:00,
2013-06-10 06:30:00,58.6,56.6,29.72,North,355,0.0,0.0,93,0.00,,,0.00,16,Wunderground v.1.15,2013-06-10 11:30:00,
2013-06-10 06:40:00,58.5,56.5,29.72,NW,313,0.0,0.0,93,0.00,,,0.00,18,Wunderground v.1.15,2013-06-10 11:40:00,
2013-06-10 06:50:00,58.4,56.4,29.73,NW,313,0.0,0.0,93,0.00,,,0.00,23,Wunderground v.1.15,2013-06-10 11:50:00,
2013-06-10 06:55:00,58.4,56.4,29.73,NW,319,0.0,0.0,93,0.00,,,0.00,28,Wunderground v.1.15,2013-06-10 11:55:00,
2013-06-10 07:05:00,58.2,56.2,29.73,NW,321,0.0,0.0,93,0.00,,,0.00,37,Wunderground v.1.15,2013-06-10 12:05:00,
2013-06-10 07:10:00,58.1,56.1,29.73,NW,321,0.0,0.0,93,0.00,,,0.00,40,Wunderground v.1.15,2013-06-10 12:10:00,
2013-06-10 07:20:00,58.1,56.1,29.74,NW,321,0.0,0.0,93,0.00,,,0.00,35,Wunderground v.1.15,2013-06-10 12:20:00,
2013-06-10 07:30:00,58.1,56.4,29.74,NW,321,0.0,0.0,94,0.00,,,0.00,54,Wunderground v.1.15,2013-06-10 12:30:00,
2013-06-10 07:40:00,58.0,56.3,29.74,NW,321,0.0,0.0,94,0.00,,,0.00,53,Wunderground v.1.15,2013-06-10 12:40:00,
2013-06-10 07:50:00,58.0,56.3,29.74,NW,324,0.0,0.0,94,0.00,,,0.00,79,Wunderground v.1.15,2013-06-10 12:50:00,
2013-06-10 08:00:00,58.0,56.3,29.75,NW,324,0.0,0.0,94,0.00,,,0.00,76,Wunderground v.1.15,2013-06-10 13:00:00,
2013-06-10 08:10:00,58.0,56.3,29.75,NW,324,0.0,0.0,94,0.00,,,0.00,84,Wunderground v.1.15,2013-06-10 13:10:00,
2013-06-10 08:20:00,58.1,56.4,29.75,NNW,348,0.0,0.0,94,0.00,,,0.00,104,Wunderground v.1.15,2013-06-10 13:20:00,
2013-06-10 08:30:00,58.2,56.5,29.76,North,349,0.0,0.0,94,0.00,,,0.00,128,Wunderground v.1.15,2013-06-10 13:30:00,
2013-06-10 08:40:00,58.7,57.0,29.76,North,349,0.0,0.0,94,0.00,,,0.00,179,Wunderground v.1.15,2013-06-10 13:40:00,
2013-06-10 08:50:00,59.0,57.3,29.75,North,349,0.0,0.0,94,0.00,,,0.00,211,Wunderground v.1.15,2013-06-10 13:50:00,
2013-06-10 08:55:00,59.4,57.7,29.75,ENE,60,0.0,0.0,94,0.00,,,0.00,243,Wunderground v.1.15,2013-06-10 13:55:00,
2013-06-10 09:00:00,59.4,57.7,29.75,ENE,60,0.0,0.0,94,0.00,,,0.00,216,Wunderground v.1.15,2013-06-10 14:00:00,
2013-06-10 09:05:00,59.5,57.8,29.75,ENE,60,0.0,0.0,94,0.00,,,0.00,232,Wunderground v.1.15,2013-06-10 14:05:00,
2013-06-10 09:15:00,60.3,58.3,29.75,ENE,61,0.0,0.0,93,0.00,,,0.00,218,Wunderground v.1.15,2013-06-10 14:15:00,
2013-06-10 09:25:00,60.8,58.5,29.75,ENE,61,0.0,0.0,92,0.00,,,0.00,378,Wunderground v.1.15,2013-06-10 14:25:00,
2013-06-10 09:35:00,60.9,58.6,29.75,ENE,61,0.0,0.0,92,0.00,,,0.00,345,Wunderground v.1.15,2013-06-10 14:35:00,
2013-06-10 09:45:00,60.9,58.3,29.76,SSE,153,0.0,2.0,91,0.00,,,0.00,276,Wunderground v.1.15,2013-06-10 14:45:00,
2013-06-10 09:55:00,60.8,58.2,29.76,SSE,154,0.0,0.0,91,0.00,,,0.00,309,Wunderground v.1.15,2013-06-10 14:55:00,
2013-06-10 10:05:00,62.0,59.3,29.76,SSE,154,0.0,0.0,91,0.00,,,0.00,380,Wunderground v.1.15,2013-06-10 15:05:00,
2013-06-10 10:15:00,62.0,59.0,29.76,SSE,154,0.0,2.0,90,0.00,,,0.00,334,Wunderground v.1.15,2013-06-10 15:15:00,
2013-06-10 10:25:00,62.2,58.9,29.76,SSE,152,0.0,0.0,89,0.00,,,0.00,352,Wunderground v.1.15,2013-06-10 15:25:00,
2013-06-10 10:35:00,62.8,59.5,29.76,SSE,163,0.0,0.0,89,0.00,,,0.00,325,Wunderground v.1.15,2013-06-10 15:35:00,
2013-06-10 10:45:00,62.5,59.2,29.76,SSE,151,1.0,1.0,89,0.00,,,0.00,271,Wunderground v.1.15,2013-06-10 15:45:00,
2013-06-10 10:55:00,62.7,59.7,29.76,SSE,156,0.0,1.0,90,0.00,,,0.00,311,Wunderground v.1.15,2013-06-10 15:55:00,
2013-06-10 11:05:00,62.2,59.2,29.76,SE,140,1.0,3.0,90,0.00,,,0.00,287,Wunderground v.1.15,2013-06-10 16:05:00,
2013-06-10 11:15:00,63.5,60.5,29.77,SE,144,0.0,1.0,90,0.00,,,0.00,311,Wunderground v.1.15,2013-06-10 16:15:00,
2013-06-10 11:25:00,63.6,60.0,29.77,SE,146,0.0,0.0,88,0.00,,,0.00,503,Wunderground v.1.15,2013-06-10 16:25:00,
2013-06-10 11:35:00,65.4,61.1,29.77,SSE,147,0.0,0.0,86,0.00,,,0.00,613,Wunderground v.1.15,2013-06-10 16:35:00,
2013-06-10 11:45:00,66.1,61.1,29.77,SSE,155,0.0,0.0,84,0.00,,,0.00,1271,Wunderground v.1.15,2013-06-10 16:45:00,
2013-06-10 11:55:00,66.0,61.0,29.77,SSE,155,0.0,0.0,84,0.00,,,0.00,603,Wunderground v.1.15,2013-06-10 16:55:00,
2013-06-10 12:00:00,66.5,61.5,29.77,SSE,154,0.0,0.0,84,0.00,,,0.00,1004,Wunderground v.1.15,2013-06-10 17:00:00,
2013-06-10 12:05:00,67.3,61.6,29.77,SSE,150,0.0,0.0,82,0.00,,,0.00,545,Wunderground v.1.15,2013-06-10 17:05:00,
2013-06-10 12:15:00,66.9,61.6,29.77,SSE,156,0.0,0.0,83,0.00,,,0.00,1002,Wunderground v.1.15,2013-06-10 17:15:00,
2013-06-10 12:25:00,66.5,61.5,29.77,ESE,121,1.0,4.0,84,0.00,,,0.00,585,Wunderground v.1.15,2013-06-10 17:25:00,
2013-06-10 12:35:00,67.9,62.2,29.77,SSE,148,1.0,1.0,82,0.00,,,0.00,932,Wunderground v.1.15,2013-06-10 17:35:00,
2013-06-10 12:45:00,68.1,61.7,29.77,SSE,159,1.0,1.0,80,0.00,,,0.00,756,Wunderground v.1.15,2013-06-10 17:45:00,
2013-06-10 12:55:00,70.2,63.4,29.77,SE,128,0.0,3.0,79,0.00,,,0.00,907,Wunderground v.1.15,2013-06-10 17:55:00,
2013-06-10 13:05:00,70.1,62.9,29.76,SE,133,1.0,2.0,78,0.00,,,0.00,900,Wunderground v.1.15,2013-06-10 18:05:00,
2013-06-10 13:15:00,71.0,63.8,29.75,SSE,157,0.0,1.0,78,0.00,,,0.00,1004,Wunderground v.1.15,2013-06-10 18:15:00,
2013-06-10 13:25:00,71.6,65.1,29.75,SE,130,1.0,2.0,80,0.00,,,0.00,960,Wunderground v.1.15,2013-06-10 18:25:00,
2013-06-10 13:35:00,71.3,64.4,29.75,SE,128,1.0,1.0,79,0.00,,,0.00,907,Wunderground v.1.15,2013-06-10 18:35:00,
2013-06-10 13:45:00,71.5,63.9,29.75,East,87,2.0,2.0,77,0.00,,,0.00,712,Wunderground v.1.15,2013-06-10 18:45:00,
2013-06-10 13:50:00,71.3,64.1,29.75,SSE,153,1.0,1.0,78,0.00,,,0.00,752,Wunderground v.1.15,2013-06-10 18:50:00,
2013-06-10 13:55:00,71.2,63.6,29.75,South,180,1.0,3.0,77,0.00,,,0.00,707,Wunderground v.1.15,2013-06-10 18:55:00,
2013-06-10 14:05:00,71.9,64.3,29.74,SSE,152,2.0,3.0,77,0.00,,,0.00,930,Wunderground v.1.15,2013-06-10 19:05:00,
2013-06-10 14:10:00,71.7,64.1,29.74,SE,141,1.0,1.0,77,0.00,,,0.00,805,Wunderground v.1.15,2013-06-10 19:10:00,
2013-06-10 14:15:00,73.3,64.9,29.74,East,92,1.0,1.0,75,0.00,,,0.00,891,Wunderground v.1.15,2013-06-10 19:15:00,
2013-06-10 14:25:00,73.7,65.7,29.74,SE,142,1.0,1.0,76,0.00,,,0.00,921,Wunderground v.1.15,2013-06-10 19:25:00,
2013-06-10 14:35:00,73.6,65.6,29.73,SE,144,1.0,5.0,76,0.00,,,0.00,921,Wunderground v.1.15,2013-06-10 19:35:00,
2013-06-10 14:40:00,73.8,65.0,29.73,SSE,148,1.0,3.0,74,0.00,,,0.00,995,Wunderground v.1.15,2013-06-10 19:40:00,
2013-06-10 14:50:00,74.3,65.1,29.72,SE,133,1.0,1.0,73,0.00,,,0.00,691,Wunderground v.1.15,2013-06-10 19:50:00,
2013-06-10 15:00:00,74.4,64.8,29.72,SSE,150,1.0,1.0,72,0.00,,,0.00,791,Wunderground v.1.15,2013-06-10 20:00:00,
2013-06-10 15:10:00,74.5,64.5,29.72,South,173,2.0,2.0,71,0.00,,,0.00,919,Wunderground v.1.15,2013-06-10 20:10:00,
2013-06-10 15:15:00,75.0,64.5,29.72,SE,132,2.0,2.0,70,0.00,,,0.00,417,Wunderground v.1.15,2013-06-10 20:15:00,
2013-06-10 15:25:00,73.9,64.3,29.72,SE,145,1.0,1.0,72,0.00,,,0.00,524,Wunderground v.1.15,2013-06-10 20:25:00,
2013-06-10 15:30:00,74.1,64.9,29.71,SSE,159,2.0,3.0,73,0.00,,,0.00,513,Wunderground v.1.15,2013-06-10 20:30:00,
2013-06-10 15:40:00,74.0,64.0,29.71,SSE,167,2.0,5.0,71,0.00,,,0.00,455,Wunderground v.1.15,2013-06-10 20:40:00,
2013-06-10 15:50:00,75.2,64.7,29.70,ESE,111,2.0,2.0,70,0.00,,,0.00,768,Wunderground v.1.15,2013-06-10 20:50:00,
2013-06-10 16:00:00,76.2,64.4,29.70,SE,129,2.0,2.0,67,0.00,,,0.00,830,Wunderground v.1.15,2013-06-10 21:00:00,
2013-06-10 16:10:00,76.4,64.2,29.70,SSE,165,2.0,3.0,66,0.00,,,0.00,784,Wunderground v.1.15,2013-06-10 21:10:00,
2013-06-10 16:20:00,77.3,65.1,29.69,East,80,1.0,3.0,66,0.00,,,0.00,737,Wunderground v.1.15,2013-06-10 21:20:00,
2013-06-10 16:30:00,77.1,64.0,29.68,ESE,111,1.0,1.0,64,0.00,,,0.00,712,Wunderground v.1.15,2013-06-10 21:30:00,
2013-06-10 16:40:00,77.6,65.8,29.68,SE,146,1.0,1.0,67,0.00,,,0.00,693,Wunderground v.1.15,2013-06-10 21:40:00,
2013-06-10 16:50:00,77.4,64.7,29.68,SSE,149,1.0,4.0,65,0.00,,,0.00,668,Wunderground v.1.15,2013-06-10 21:50:00,
2013-06-10 17:00:00,77.7,65.9,29.68,SE,133,1.0,3.0,67,0.00,,,0.00,619,Wunderground v.1.15,2013-06-10 22:00:00,
2013-06-10 17:10:00,77.8,66.4,29.68,SSE,153,1.0,3.0,68,0.00,,,0.00,626,Wunderground v.1.15,2013-06-10 22:10:00,
2013-06-10 17:20:00,77.7,66.3,29.67,South,180,2.0,2.0,68,0.00,,,0.00,482,Wunderground v.1.15,2013-06-10 22:20:00,
2013-06-10 17:30:00,78.1,66.7,29.68,SSE,147,2.0,2.0,68,0.00,,,0.00,323,Wunderground v.1.15,2013-06-10 22:30:00,
2013-06-10 17:35:00,77.9,66.5,29.68,SSE,155,2.0,2.0,68,0.00,,,0.00,225,Wunderground v.1.15,2013-06-10 22:35:00,
2013-06-10 17:45:00,77.6,66.2,29.67,SSE,159,2.0,2.0,68,0.00,,,0.00,135,Wunderground v.1.15,2013-06-10 22:45:00,
2013-06-10 17:50:00,77.7,65.9,29.67,SSE,157,1.0,1.0,67,0.00,,,0.00,232,Wunderground v.1.15,2013-06-10 22:50:00,
2013-06-10 18:00:00,77.8,66.0,29.65,SE,127,3.0,4.0,67,0.00,,,0.00,69,Wunderground v.1.15,2013-06-10 23:00:00,
2013-06-10 18:10:00,77.6,65.3,29.65,SSE,150,3.0,6.0,66,0.00,,,0.00,53,Wunderground v.1.15,2013-06-10 23:10:00,
2013-06-10 18:20:00,77.2,65.4,29.65,SSE,160,3.0,4.0,67,0.00,,,0.00,84,Wunderground v.1.15,2013-06-10 23:20:00,
2013-06-10 18:25:00,77.4,65.6,29.65,South,188,2.0,5.0,67,0.00,,,0.00,81,Wunderground v.1.15,2013-06-10 23:25:00,
2013-06-10 18:35:00,77.5,65.2,29.64,SE,146,2.0,4.0,66,0.00,,,0.00,241,Wunderground v.1.15,2013-06-10 23:35:00,
2013-06-10 18:45:00,77.6,65.8,29.64,SE,142,3.0,5.0,67,0.00,,,0.00,63,Wunderground v.1.15,2013-06-10 23:45:00,
2013-06-10 18:55:00,77.5,66.1,29.64,SSE,168,3.0,4.0,68,0.00,,,0.00,139,Wunderground v.1.15,2013-06-10 23:55:00,
2013-06-10 19:05:00,77.5,66.1,29.63,SSE,166,2.0,2.0,68,0.00,,,0.00,49,Wunderground v.1.15,2013-06-11 00:05:00,
2013-06-10 19:15:00,77.6,64.9,29.64,SSE,151,4.0,10.0,65,0.00,,,0.00,46,Wunderground v.1.15,2013-06-11 00:15:00,
2013-06-10 19:25:00,77.7,64.5,29.64,SSE,157,4.0,4.0,64,0.00,,,0.00,51,Wunderground v.1.15,2013-06-11 00:25:00,
2013-06-10 19:30:00,77.6,64.5,29.65,SE,135,3.0,3.0,64,0.00,,,0.00,51,Wunderground v.1.15,2013-06-11 00:30:00,
2013-06-10 19:40:00,77.4,64.3,29.65,SE,145,2.0,3.0,64,0.00,,,0.00,37,Wunderground v.1.15,2013-06-11 00:40:00,
2013-06-10 19:50:00,77.2,65.0,29.65,SSE,159,1.0,1.0,66,0.00,,,0.00,58,Wunderground v.1.15,2013-06-11 00:50:00,
2013-06-10 19:55:00,77.1,64.9,29.65,SSE,164,1.0,2.0,66,0.00,,,0.00,93,Wunderground v.1.15,2013-06-11 00:55:00,
2013-06-10 20:00:00,77.0,64.8,29.66,SSE,165,1.0,3.0,66,0.00,,,0.00,33,Wunderground v.1.15,2013-06-11 01:00:00,
2013-06-10 20:10:00,76.8,64.6,29.66,South,174,1.0,1.0,66,0.00,,,0.00,28,Wunderground v.1.15,2013-06-11 01:10:00,
2013-06-10 20:20:00,76.3,65.0,29.66,South,174,1.0,1.0,68,0.00,,,0.00,21,Wunderground v.1.15,2013-06-11 01:20:00,
2013-06-10 20:25:00,76.0,64.7,29.66,South,174,0.0,1.0,68,0.00,,,0.00,19,Wunderground v.1.15,2013-06-11 01:25:00,
2013-06-10 20:35:00,75.4,64.5,29.66,South,174,0.0,0.0,69,0.00,,,0.00,14,Wunderground v.1.15,2013-06-11 01:35:00,
2013-06-10 20:45:00,74.8,64.8,29.67,South,174,0.0,0.0,71,0.00,,,0.00,9,Wunderground v.1.15,2013-06-11 01:45:00,
2013-06-10 20:50:00,74.4,64.8,29.67,South,174,0.0,0.0,72,0.00,,,0.00,5,Wunderground v.1.15,2013-06-11 01:50:00,
2013-06-10 21:00:00,73.9,64.7,29.66,South,174,0.0,0.0,73,0.00,,,0.00,0,Wunderground v.1.15,2013-06-11 02:00:00,
2013-06-10 21:10:00,73.1,64.7,29.66,South,174,0.0,0.0,75,0.00,,,0.00,0,Wunderground v.1.15,2013-06-11 02:10:00,
2013-06-10 21:20:00,72.5,64.9,29.66,South,174,0.0,0.0,77,0.00,,,0.00,0,Wunderground v.1.15,2013-06-11 02:20:00,
2013-06-10 21:30:00,71.9,65.0,29.66,South,174,0.0,0.0,79,0.00,,,0.00,0,Wunderground v.1.15,2013-06-11 02:30:00,
2013-06-10 21:35:00,71.6,64.7,29.66,South,174,0.0,0.0,79,0.00,,,0.00,0,Wunderground v.1.15,2013-06-11 02:35:00,
2013-06-10 21:45:00,71.4,64.9,29.66,South,174,0.0,0.0,80,0.00,,,0.00,0,Wunderground v.1.15,2013-06-11 02:45:00,
2013-06-10 21:55:00,71.5,65.0,29.66,South,174,0.0,0.0,80,0.00,,,0.00,0,Wunderground v.1.15,2013-06-11 02:55:00,
2013-06-10 22:00:00,71.4,65.3,29.67,South,174,0.0,0.0,81,0.00,,,0.00,0,Wunderground v.1.15,2013-06-11 03:00:00,
2013-06-10 22:10:00,71.5,65.0,29.67,South,174,0.0,0.0,80,0.00,,,0.00,0,Wunderground v.1.15,2013-06-11 03:10:00,
2013-06-10 22:20:00,71.7,65.2,29.68,South,174,0.0,0.0,80,0.00,,,0.00,0,Wunderground v.1.15,2013-06-11 03:20:00,
2013-06-10 22:30:00,71.5,65.4,29.68,South,174,0.0,0.0,81,0.00,,,0.00,0,Wunderground v.1.15,2013-06-11 03:30:00,
2013-06-10 22:40:00,71.0,65.2,29.68,South,174,0.0,0.0,82,0.00,,,0.00,0,Wunderground v.1.15,2013-06-11 03:40:00,
2013-06-10 22:45:00,71.0,65.2,29.68,South,174,0.0,0.0,82,0.00,,,0.00,0,Wunderground v.1.15,2013-06-11 03:45:00,
2013-06-10 22:55:00,71.1,65.0,29.68,South,174,0.0,0.0,81,0.00,,,0.00,0,Wunderground v.1.15,2013-06-11 03:55:00,
2013-06-10 23:05:00,70.8,65.0,29.68,South,174,0.0,0.0,82,0.00,,,0.00,0,Wunderground v.1.15,2013-06-11 04:05:00,
2013-06-10 23:15:00,70.8,65.4,29.68,SSE,161,0.0,0.0,83,0.00,,,0.00,0,Wunderground v.1.15,2013-06-11 04:15:00,
2013-06-10 23:20:00,70.8,65.0,29.68,SSE,160,0.0,0.0,82,0.00,,,0.00,0,Wunderground v.1.15,2013-06-11 04:20:00,
2013-06-10 23:25:00,70.7,65.3,29.68,SSE,160,0.0,0.0,83,0.00,,,0.00,0,Wunderground v.1.15,2013-06-11 04:25:00,
2013-06-10 23:35:00,70.6,65.2,29.68,SSE,159,0.0,0.0,83,0.00,,,0.00,0,Wunderground v.1.15,2013-06-11 04:35:00,
2013-06-10 23:45:00,70.3,64.9,29.69,SSE,159,0.0,0.0,83,0.00,,,0.00,0,Wunderground v.1.15,2013-06-11 04:45:00,
2013-06-10 23:55:00,70.1,65.0,29.69,SSE,159,0.0,0.0,84,0.00,,,0.00,0,Wunderground v.1.15,2013-06-11 04:55:00,